Terminal Aerodrome Forecast
Issued by NWS La Crosse, WI

Home | Current Version | Previous Version | Text Only | Print | Product List | Glossary On
Versions: 1 2 3 4 5 6 7 8 9 10 11 12 13 14 15 16 17 18 19 20 21 22 23 24 25 26 27 28 29 30 31 32 33 34
000
FTUS43 KARX 312323
TAFRST
TAF
KRST 312323Z 0100/0124 03011KT P6SM OVC015
     FM010300 04013KT 2SM -SN OVC008
     FM010600 05014KT 1/2SM SN OVC006
     FM011200 05016G24KT 1SM -SN OVC006
     FM011500 04015G24KT 2SM -SN BLSN OVC010
     FM012100 02014G22KT 5SM -SN BLSN OVC015=

USA.gov is the U.S. government's official web portal to all federal, state and local government web resources and services.